Time;durP1;ratioP1;P1;durP2;ratioP2;P2;SDS_P1;SDS_P2;PMS_P1;PMS_P2;Temp;Humidity;BMP_temperature;BMP_pressure;BME280_temperature;BME280_humidity;BME280_pressure;Samples;Min_cycle;Max_cycle;Signal;HPM_P1;HPM_P2
2023/07/08 00:02:13;;;;;;;92.03;2.60;;;27.80;11.90;;;;;;4973274;28;20874;-73
2023/07/08 00:04:39;;;;;;;91.73;2.60;;;27.80;12.10;;;;;;4972928;28;20502;-72
2023/07/08 00:07:10;;;;;;;90.67;2.50;;;27.60;11.80;;;;;;4973088;28;20406;-73
2023/07/08 00:09:36;;;;;;;90.87;2.50;;;27.70;12.20;;;;;;4973030;28;20504;-74
2023/07/08 00:12:01;;;;;;;91.50;2.60;;;27.60;11.90;;;;;;4973164;28;20418;-72
2023/07/08 00:14:27;;;;;;;91.37;2.70;;;27.60;11.80;;;;;;4972969;28;20229;-73
2023/07/08 00:16:53;;;;;;;94.23;2.73;;;27.70;11.70;;;;;;4972887;28;20179;-73
2023/07/08 00:19:19;;;;;;;91.20;2.67;;;27.40;12.40;;;;;;4972706;28;20222;-73
2023/07/08 00:21:45;;;;;;;91.30;2.50;;;27.30;12.10;;;;;;4973335;28;20170;-73
2023/07/08 00:24:12;;;;;;;90.37;2.37;;;27.40;12.00;;;;;;4973044;28;20417;-73
2023/07/08 00:26:37;;;;;;;90.53;2.33;;;27.30;12.30;;;;;;4972958;28;20409;-73
2023/07/08 00:29:08;;;;;;;90.87;2.57;;;27.20;12.50;;;;;;4972398;28;20444;-73
2023/07/08 00:31:33;;;;;;;91.13;2.40;;;27.20;12.40;;;;;;4972869;28;20182;-73
2023/07/08 00:33:59;;;;;;;91.47;2.83;;;26.90;13.20;;;;;;4972257;28;20901;-73
2023/07/08 00:36:27;;;;;;;92.50;3.27;;;26.90;13.00;;;;;;4972706;28;20288;-73
2023/07/08 00:38:52;;;;;;;90.60;2.30;;;26.80;12.80;;;;;;4972416;28;20288;-72
2023/07/08 00:41:18;;;;;;;91.00;2.60;;;26.70;12.70;;;;;;4972572;28;20509;-72
2023/07/08 00:43:48;;;;;;;91.37;2.87;;;26.60;12.90;;;;;;4971333;28;20552;-72
2023/07/08 00:46:31;;;;;;;91.60;2.77;;;26.50;13.40;;;;;;4972478;28;20166;-73
2023/07/08 00:49:38;;;;;;;91.13;2.73;;;26.80;13.00;;;;;;4972312;28;20948;-73
2023/07/08 00:52:24;;;;;;;91.20;2.90;;;26.60;13.40;;;;;;4972773;28;20436;-73
2023/07/08 00:54:53;;;;;;;93.70;2.53;;;26.40;13.40;;;;;;4971960;28;20787;-72
2023/07/08 00:57:19;;;;;;;92.70;3.50;;;26.40;13.80;;;;;;4972942;28;20420;-72
2023/07/08 00:59:51;;;;;;;91.60;3.00;;;26.50;13.60;;;;;;4972339;28;20476;-73
2023/07/08 01:02:20;;;;;;;90.97;2.50;;;26.60;13.20;;;;;;4972623;28;20929;-72
2023/07/08 01:05:23;;;;;;;93.40;2.90;;;26.50;13.00;;;;;;4970862;28;20905;-73
2023/07/08 01:07:54;;;;;;;92.30;2.40;;;26.50;13.30;;;;;;4950798;29;20433;-73
2023/07/08 01:10:26;;;;;;;91.27;2.67;;;26.30;13.30;;;;;;4950769;29;20911;-73
2023/07/08 01:12:57;;;;;;;90.90;2.60;;;26.30;13.80;;;;;;4950936;29;20431;-74
2023/07/08 01:15:25;;;;;;;91.20;2.50;;;26.30;13.90;;;;;;4950355;29;20434;-73
2023/07/08 01:17:53;;;;;;;90.70;2.20;;;26.40;14.00;;;;;;4950481;29;20559;-72
2023/07/08 01:20:19;;;;;;;91.63;2.77;;;26.40;14.20;;;;;;4950540;29;20582;-73
2023/07/08 01:22:45;;;;;;;91.37;2.60;;;26.40;13.90;;;;;;4950709;29;20450;-73
2023/07/08 01:25:13;;;;;;;90.97;2.30;;;26.60;13.70;;;;;;4934078;29;20415;-73
2023/07/08 01:27:43;;;;;;;92.03;2.50;;;26.50;13.60;;;;;;4950771;29;20893;-73
2023/07/08 01:30:10;;;;;;;91.60;2.63;;;26.50;13.40;;;;;;4950476;29;20450;-73
2023/07/08 01:32:45;;;;;;;91.27;2.63;;;26.40;13.90;;;;;;4950879;29;20817;-74
2023/07/08 01:35:12;;;;;;;91.80;2.70;;;26.30;14.10;;;;;;4950066;29;20418;-74
2023/07/08 01:37:41;;;;;;;91.10;2.43;;;26.50;13.40;;;;;;4950817;29;20509;-73
2023/07/08 01:40:19;;;;;;;91.70;2.47;;;26.40;14.40;;;;;;4950246;29;20466;-74
2023/07/08 01:42:46;;;;;;;91.87;2.47;;;26.60;14.20;;;;;;4970379;28;20418;-73
2023/07/08 01:45:17;;;;;;;94.17;3.27;;;26.30;14.10;;;;;;4971668;28;20773;-73
2023/07/08 01:47:48;;;;;;;90.87;2.23;;;26.10;14.30;;;;;;4975265;28;20410;-73
2023/07/08 01:50:14;;;;;;;94.77;2.90;;;26.10;14.30;;;;;;4975572;28;20441;-73
2023/07/08 01:52:40;;;;;;;91.40;2.43;;;26.10;14.80;;;;;;4975591;28;20422;-73
2023/07/08 01:55:06;;;;;;;91.80;2.60;;;26.20;15.00;;;;;;4975400;28;20209;-73
2023/07/08 01:57:31;;;;;;;94.43;2.93;;;25.90;14.80;;;;;;4975717;28;20181;-73
2023/07/08 01:59:57;;;;;;;92.00;2.60;;;26.10;14.60;;;;;;4975011;28;20277;-73
2023/07/08 02:02:24;;;;;;;91.40;2.67;;;26.20;15.30;;;;;;4975949;28;20630;-73
2023/07/08 02:04:50;;;;;;;92.67;3.20;;;26.40;14.80;;;;;;4975031;28;20670;-73
2023/07/08 02:07:15;;;;;;;91.53;2.70;;;26.40;14.40;;;;;;4975318;28;20410;-74
2023/07/08 02:09:41;;;;;;;91.57;2.80;;;26.40;14.60;;;;;;4975212;28;20445;-73
2023/07/08 02:12:07;;;;;;;91.40;2.40;;;26.40;14.50;;;;;;4975115;28;20221;-73
2023/07/08 02:14:32;;;;;;;91.17;2.40;;;26.40;15.20;;;;;;4975067;28;20187;-72
2023/07/08 02:16:58;;;;;;;91.67;2.43;;;26.30;14.40;;;;;;4975115;28;20421;-73
2023/07/08 02:19:24;;;;;;;92.60;2.97;;;26.50;14.30;;;;;;4974862;28;20252;-73
2023/07/08 02:21:51;;;;;;;91.97;2.60;;;26.50;13.90;;;;;;4975055;28;20221;-74
2023/07/08 02:24:17;;;;;;;94.10;2.90;;;26.70;13.90;;;;;;4975143;28;20880;-74
2023/07/08 02:26:43;;;;;;;100.27;3.43;;;26.60;14.00;;;;;;4974564;28;20414;-73
2023/07/08 02:29:08;;;;;;;92.00;3.00;;;26.60;14.20;;;;;;4975368;28;20289;-73
2023/07/08 02:31:34;;;;;;;91.37;2.50;;;26.40;14.40;;;;;;4974889;28;20178;-73
2023/07/08 02:34:02;;;;;;;91.27;2.43;;;26.50;13.90;;;;;;4974994;28;20178;-73
2023/07/08 02:36:27;;;;;;;93.07;3.50;;;26.60;15.10;;;;;;4974386;28;20541;-73
2023/07/08 02:38:53;;;;;;;92.27;2.97;;;26.50;17.30;;;;;;4974678;28;20473;-73
2023/07/08 02:41:19;;;;;;;91.57;2.70;;;26.90;14.50;;;;;;4974424;28;20935;-73
2023/07/08 02:43:44;;;;;;;92.07;2.33;;;26.50;14.20;;;;;;4974793;28;20182;-73
2023/07/08 02:46:10;;;;;;;91.87;2.63;;;26.40;15.60;;;;;;4974330;28;20202;-74
2023/07/08 02:48:35;;;;;;;91.37;2.40;;;26.50;16.90;;;;;;4974626;28;20206;-73
2023/07/08 02:51:03;;;;;;;92.20;2.60;;;26.70;14.80;;;;;;4974282;28;20174;-73
2023/07/08 02:53:28;;;;;;;92.00;2.70;;;26.50;16.60;;;;;;4974444;28;20183;-73
2023/07/08 02:55:54;;;;;;;92.57;3.13;;;26.30;17.70;;;;;;4974108;28;20426;-73
2023/07/08 02:58:20;;;;;;;91.70;2.30;;;26.20;18.90;;;;;;4974101;28;20229;-73
2023/07/08 03:00:51;;;;;;;92.47;2.90;;;26.20;16.50;;;;;;4974322;28;20185;-73
2023/07/08 03:03:16;;;;;;;91.87;2.70;;;26.30;16.20;;;;;;4974455;28;20421;-73
2023/07/08 03:05:42;;;;;;;92.07;2.60;;;26.10;16.90;;;;;;4973642;28;20498;-74
2023/07/08 03:08:07;;;;;;;93.17;3.10;;;26.00;18.10;;;;;;4974286;28;20261;-73
2023/07/08 03:10:33;;;;;;;92.87;3.17;;;25.70;19.10;;;;;;4974156;28;20194;-73
2023/07/08 03:12:58;;;;;;;96.90;3.00;;;25.80;17.80;;;;;;4974008;28;20249;-73
2023/07/08 03:15:24;;;;;;;92.47;2.63;;;25.80;18.50;;;;;;4973862;28;20182;-73
2023/07/08 03:17:49;;;;;;;92.60;2.63;;;25.70;18.80;;;;;;4974049;28;20202;-72
2023/07/08 03:20:15;;;;;;;94.97;3.00;;;25.40;18.00;;;;;;4973835;28;20709;-74
2023/07/08 03:22:41;;;;;;;92.73;2.90;;;25.00;19.50;;;;;;4974118;28;20549;-74
2023/07/08 03:25:07;;;;;;;92.30;2.53;;;25.10;18.80;;;;;;4973638;28;20175;-74
2023/07/08 03:27:32;;;;;;;93.60;3.17;;;25.20;18.10;;;;;;4973721;28;20551;-74
2023/07/08 03:29:58;;;;;;;93.97;3.20;;;25.30;19.40;;;;;;4973874;28;20437;-72
2023/07/08 03:32:25;;;;;;;93.37;3.03;;;25.40;18.80;;;;;;4973835;28;20182;-73
2023/07/08 03:34:51;;;;;;;92.00;2.40;;;25.40;19.20;;;;;;4973270;28;20174;-73
2023/07/08 03:37:16;;;;;;;93.10;2.97;;;25.50;18.10;;;;;;4972269;28;20433;-73
2023/07/08 03:39:42;;;;;;;92.57;2.67;;;25.60;17.60;;;;;;4972128;28;20213;-73
2023/07/08 03:42:09;;;;;;;94.90;3.07;;;25.80;17.30;;;;;;4973563;28;20178;-73
2023/07/08 03:44:34;;;;;;;92.90;3.00;;;25.80;18.10;;;;;;4973483;28;20183;-73
2023/07/08 03:47:00;;;;;;;93.67;2.90;;;25.90;18.90;;;;;;4973403;28;20972;-74
2023/07/08 03:49:26;;;;;;;93.47;3.00;;;25.80;18.80;;;;;;4973198;28;20684;-73
2023/07/08 03:51:55;;;;;;;92.97;2.87;;;25.60;20.00;;;;;;4973398;28;20178;-73
2023/07/08 03:54:23;;;;;;;91.90;2.20;;;25.30;17.90;;;;;;4972332;28;20182;-73
2023/07/08 03:56:49;;;;;;;92.30;2.63;;;24.70;19.50;;;;;;4971976;28;20862;-73
2023/07/08 03:59:15;;;;;;;92.20;2.27;;;25.40;18.70;;;;;;4973247;28;20493;-73
2023/07/08 04:01:40;;;;;;;94.10;3.07;;;25.80;19.60;;;;;;4973124;28;20181;-73
2023/07/08 04:04:09;;;;;;;92.90;2.77;;;25.80;18.20;;;;;;4972965;28;20178;-73
2023/07/08 04:06:35;;;;;;;93.37;2.97;;;25.50;18.70;;;;;;4972910;28;20662;-73
2023/07/08 04:09:00;;;;;;;93.30;2.90;;;25.40;18.40;;;;;;4972467;28;20496;-73
2023/07/08 04:11:26;;;;;;;92.80;2.70;;;25.50;18.10;;;;;;4973107;28;20237;-73
2023/07/08 04:13:51;;;;;;;92.90;2.70;;;25.30;18.30;;;;;;4973094;28;20646;-73
2023/07/08 04:16:24;;;;;;;92.90;2.80;;;25.30;18.30;;;;;;4972404;28;20182;-73
2023/07/08 04:18:50;;;;;;;92.53;2.63;;;25.40;17.90;;;;;;4971681;28;20305;-73
2023/07/08 04:21:17;;;;;;;92.80;2.87;;;25.60;17.80;;;;;;4972929;28;20929;-73
2023/07/08 04:23:43;;;;;;;93.30;3.00;;;26.00;18.40;;;;;;4973104;28;20460;-74
2023/07/08 04:26:09;;;;;;;94.87;2.90;;;26.10;17.60;;;;;;4972332;28;20493;-73
2023/07/08 04:28:34;;;;;;;93.10;2.70;;;26.00;17.60;;;;;;4972969;28;20286;-73
2023/07/08 04:31:00;;;;;;;93.27;2.30;;;25.80;19.40;;;;;;4972740;28;20450;-73
2023/07/08 04:33:26;;;;;;;92.80;2.70;;;25.50;19.60;;;;;;4972595;28;20197;-73
2023/07/08 04:35:54;;;;;;;92.57;2.50;;;24.80;20.70;;;;;;4972507;28;20901;-73
2023/07/08 04:38:21;;;;;;;92.37;2.50;;;24.40;22.60;;;;;;4972751;28;20599;-73
2023/07/08 04:40:48;;;;;;;93.27;2.67;;;24.70;23.00;;;;;;4972670;28;20429;-73
2023/07/08 04:43:14;;;;;;;93.10;2.90;;;24.30;22.30;;;;;;4972768;28;20795;-72
2023/07/08 04:45:42;;;;;;;93.07;2.60;;;23.50;23.90;;;;;;4973075;28;20409;-72
2023/07/08 04:48:13;;;;;;;93.47;2.87;;;23.70;23.50;;;;;;4970146;28;20170;-73
2023/07/08 04:50:42;;;;;;;109.37;3.60;;;23.90;24.00;;;;;;4972468;28;20433;-73
2023/07/08 04:53:08;;;;;;;92.90;2.67;;;24.20;23.50;;;;;;4972539;28;20432;-74
2023/07/08 04:55:41;;;;;;;93.77;2.80;;;24.10;23.10;;;;;;4972359;28;20466;-73
2023/07/08 04:58:07;;;;;;;93.23;2.67;;;24.30;23.00;;;;;;4972327;28;20414;-73
2023/07/08 05:00:32;;;;;;;94.03;3.27;;;24.30;21.60;;;;;;4972279;28;20989;-72
2023/07/08 05:02:58;;;;;;;93.27;2.70;;;23.50;23.20;;;;;;4969206;28;20252;-73
2023/07/08 05:05:23;;;;;;;94.40;2.97;;;23.50;23.60;;;;;;4972165;28;20185;-73
2023/07/08 05:07:49;;;;;;;93.37;2.63;;;23.30;23.40;;;;;;4972412;28;20177;-74
2023/07/08 05:10:15;;;;;;;95.20;2.67;;;23.10;24.40;;;;;;4972521;28;20200;-73
2023/07/08 05:12:41;;;;;;;94.53;2.90;;;23.50;23.60;;;;;;4971925;28;20225;-73
2023/07/08 05:15:07;;;;;;;93.70;3.03;;;23.80;23.40;;;;;;4972298;28;20187;-73
2023/07/08 05:17:33;;;;;;;93.87;2.83;;;23.90;23.10;;;;;;4972332;28;20921;-72
2023/07/08 05:20:00;;;;;;;93.57;2.80;;;23.90;23.50;;;;;;4972367;28;20842;-73
2023/07/08 05:22:26;;;;;;;93.47;2.83;;;24.60;24.30;;;;;;4976280;28;20421;-73
2023/07/08 05:24:55;;;;;;;93.27;2.80;;;24.80;22.60;;;;;;4975764;28;20437;-73
2023/07/08 05:27:22;;;;;;;94.07;2.97;;;24.50;23.30;;;;;;4975875;28;20485;-73
2023/07/08 05:29:48;;;;;;;93.30;2.57;;;24.10;23.20;;;;;;4974723;28;20496;-73
2023/07/08 05:32:13;;;;;;;93.77;2.87;;;24.50;23.30;;;;;;4975124;28;20430;-73
2023/07/08 05:34:39;;;;;;;94.10;3.17;;;24.30;23.00;;;;;;4975033;28;20213;-73
2023/07/08 05:37:04;;;;;;;93.30;2.60;;;24.40;23.30;;;;;;4973328;28;20306;-73
2023/07/08 05:39:31;;;;;;;94.87;3.07;;;24.80;24.30;;;;;;4975664;28;20202;-73
2023/07/08 05:41:56;;;;;;;93.90;2.87;;;24.60;23.00;;;;;;4975414;28;20336;-73
2023/07/08 05:44:22;;;;;;;93.60;2.50;;;25.00;22.60;;;;;;4975857;28;20956;-74
2023/07/08 05:46:49;;;;;;;93.83;2.67;;;25.20;22.30;;;;;;4975579;28;20174;-74
2023/07/08 05:49:15;;;;;;;94.00;2.70;;;25.40;24.90;;;;;;4975708;28;20194;-74
2023/07/08 05:51:41;;;;;;;96.20;2.77;;;25.40;22.50;;;;;;4975419;28;20961;-75
2023/07/08 05:54:06;;;;;;;93.70;2.57;;;25.60;24.50;;;;;;4975643;28;20214;-74
2023/07/08 05:56:32;;;;;;;94.27;2.70;;;25.70;23.60;;;;;;4975250;28;20181;-73
2023/07/08 05:58:58;;;;;;;94.77;3.00;;;25.80;24.90;;;;;;4975391;28;20288;-73
2023/07/08 06:01:23;;;;;;;94.13;2.50;;;25.80;24.30;;;;;;4975335;28;20565;-74
2023/07/08 06:03:49;;;;;;;94.07;2.63;;;25.90;25.10;;;;;;4975271;28;20733;-73
2023/07/08 06:06:15;;;;;;;95.20;2.93;;;26.00;25.50;;;;;;4975402;28;20194;-74
2023/07/08 06:08:41;;;;;;;97.50;3.13;;;26.10;24.90;;;;;;4975228;28;20469;-73
2023/07/08 06:11:06;;;;;;;94.37;2.60;;;26.00;23.30;;;;;;4974907;28;20673;-73
2023/07/08 06:13:32;;;;;;;94.80;2.80;;;26.10;25.30;;;;;;4975170;28;20178;-73
2023/07/08 06:15:58;;;;;;;94.80;2.87;;;26.10;24.20;;;;;;4974884;28;20175;-73
2023/07/08 06:18:23;;;;;;;94.70;2.67;;;26.10;24.30;;;;;;4974852;28;20194;-73
2023/07/08 06:20:57;;;;;;;95.57;2.97;;;26.10;23.70;;;;;;4975209;28;20265;-73
2023/07/08 06:23:23;;;;;;;94.77;2.70;;;26.20;25.70;;;;;;4974927;28;20171;-73
2023/07/08 06:25:49;;;;;;;95.40;2.73;;;26.20;24.00;;;;;;4974629;28;20495;-73
2023/07/08 06:28:15;;;;;;;94.97;2.80;;;26.30;23.30;;;;;;4974781;28;20426;-73
2023/07/08 06:30:40;;;;;;;95.27;2.80;;;26.40;24.80;;;;;;4974953;28;20477;-73
2023/07/08 06:33:06;;;;;;;94.90;2.43;;;26.30;24.40;;;;;;4974138;28;20422;-73
2023/07/08 06:35:32;;;;;;;94.90;2.63;;;26.30;24.60;;;;;;4973520;28;20178;-73
2023/07/08 06:37:58;;;;;;;95.67;2.93;;;26.10;25.40;;;;;;4974474;28;20410;-74
2023/07/08 06:40:24;;;;;;;95.90;3.10;;;26.20;24.90;;;;;;4974721;28;20214;-73
2023/07/08 06:42:49;;;;;;;94.97;2.67;;;25.90;22.70;;;;;;4975011;28;20499;-73
2023/07/08 06:45:15;;;;;;;95.33;2.83;;;25.50;23.40;;;;;;4974385;28;20181;-73
2023/07/08 06:47:40;;;;;;;135.30;2.80;;;25.50;23.20;;;;;;4974723;28;20170;-73
2023/07/08 06:50:07;;;;;;;94.90;2.50;;;25.40;23.20;;;;;;4973360;28;20206;-73
2023/07/08 06:52:34;;;;;;;94.77;2.53;;;25.60;22.50;;;;;;4974076;28;20194;-73
2023/07/08 06:55:00;;;;;;;96.43;2.60;;;25.30;22.90;;;;;;4972743;28;20416;-73
2023/07/08 06:57:26;;;;;;;95.40;2.80;;;25.40;23.00;;;;;;4973137;28;20421;-73
2023/07/08 06:59:52;;;;;;;95.40;3.23;;;25.60;23.10;;;;;;4974345;28;20465;-74
2023/07/08 07:02:17;;;;;;;97.90;2.93;;;26.10;23.40;;;;;;4972517;28;20623;-73
2023/07/08 07:04:43;;;;;;;96.30;3.70;;;26.30;24.00;;;;;;4973716;28;20174;-73
2023/07/08 07:07:09;;;;;;;94.90;2.73;;;26.80;23.80;;;;;;4974205;28;20269;-73
2023/07/08 07:09:35;;;;;;;96.30;3.10;;;26.80;23.10;;;;;;4974026;28;20589;-73
2023/07/08 07:12:01;;;;;;;94.60;2.47;;;27.00;23.10;;;;;;4973851;28;20953;-73
2023/07/08 07:14:27;;;;;;;94.60;2.57;;;27.10;22.80;;;;;;4971765;28;20657;-74
2023/07/08 07:16:52;;;;;;;94.80;2.70;;;27.10;22.90;;;;;;4973086;28;20414;-73
2023/07/08 07:19:18;;;;;;;95.27;2.63;;;27.30;22.10;;;;;;4973770;28;20214;-73
2023/07/08 07:21:43;;;;;;;94.30;2.33;;;27.20;22.10;;;;;;4973994;28;20221;-72
2023/07/08 07:24:09;;;;;;;94.67;2.50;;;27.40;23.30;;;;;;4973942;28;20178;-74
2023/07/08 07:26:36;;;;;;;94.60;2.40;;;27.70;21.30;;;;;;4973874;28;20253;-73
2023/07/08 07:29:02;;;;;;;95.30;2.50;;;27.80;20.20;;;;;;4973023;28;20273;-72
2023/07/08 07:31:28;;;;;;;94.47;2.40;;;27.90;20.80;;;;;;4973143;28;20426;-73
2023/07/08 07:33:53;;;;;;;95.77;2.70;;;27.80;19.90;;;;;;4972705;28;20417;-74
2023/07/08 07:36:19;;;;;;;94.60;2.57;;;27.70;20.60;;;;;;4973337;28;20202;-73
2023/07/08 07:38:45;;;;;;;94.50;2.37;;;27.70;20.40;;;;;;4973148;28;20202;-73
2023/07/08 07:41:12;;;;;;;94.63;2.70;;;28.00;20.30;;;;;;4973600;28;20245;-73
2023/07/08 07:43:38;;;;;;;94.17;2.50;;;28.20;19.80;;;;;;4970949;28;21027;-72
2023/07/08 07:46:05;;;;;;;94.17;2.40;;;27.80;20.40;;;;;;4972711;28;20461;-73
2023/07/08 07:48:31;;;;;;;94.40;2.30;;;27.60;21.00;;;;;;4971710;28;20218;-73
2023/07/08 07:50:57;;;;;;;94.87;2.33;;;27.20;21.60;;;;;;4973140;28;20424;-74
2023/07/08 07:53:23;;;;;;;93.97;2.40;;;27.20;20.90;;;;;;4972689;28;20413;-74
2023/07/08 07:55:55;;;;;;;94.10;2.30;;;26.80;21.90;;;;;;4972112;28;20257;-73
2023/07/08 07:58:21;;;;;;;94.03;2.33;;;26.70;22.10;;;;;;4973077;28;20290;-73
2023/07/08 08:00:46;;;;;;;93.80;2.10;;;26.60;22.80;;;;;;4973217;28;20422;-73
2023/07/08 08:03:12;;;;;;;93.57;2.30;;;26.70;23.10;;;;;;4973219;28;20273;-73
2023/07/08 08:05:37;;;;;;;95.60;2.57;;;27.30;21.90;;;;;;4971402;28;20182;-74
2023/07/08 08:08:03;;;;;;;94.27;2.30;;;27.10;22.70;;;;;;4966384;28;20544;-73
2023/07/08 08:10:30;;;;;;;94.73;2.57;;;27.60;22.40;;;;;;4972524;28;20547;-74
2023/07/08 08:12:55;;;;;;;94.73;2.43;;;27.90;22.40;;;;;;4970686;28;20429;-73
2023/07/08 08:15:22;;;;;;;95.10;2.70;;;27.30;21.00;;;;;;4971363;28;20929;-73
2023/07/08 08:17:49;;;;;;;94.77;2.70;;;27.10;21.50;;;;;;4971763;28;20241;-73
2023/07/08 08:20:14;;;;;;;93.90;2.20;;;27.20;21.20;;;;;;4971438;28;20512;-73
2023/07/08 08:22:40;;;;;;;93.70;2.40;;;27.40;20.90;;;;;;4972110;28;20498;-73
2023/07/08 08:25:06;;;;;;;95.67;2.80;;;26.60;22.50;;;;;;4971131;28;20190;-73
2023/07/08 08:27:32;;;;;;;94.97;2.57;;;26.70;22.80;;;;;;4972549;28;20257;-73
2023/07/08 08:29:57;;;;;;;94.00;2.60;;;26.80;22.00;;;;;;4972243;28;20520;-74
2023/07/08 08:32:23;;;;;;;93.97;2.33;;;26.90;22.20;;;;;;4966827;28;20650;-74
2023/07/08 08:34:48;;;;;;;94.70;2.60;;;27.40;21.80;;;;;;4971517;28;20586;-74
2023/07/08 08:37:14;;;;;;;93.63;2.33;;;27.50;21.40;;;;;;4970149;28;20198;-74
2023/07/08 08:39:40;;;;;;;95.60;2.73;;;27.00;22.90;;;;;;4971852;28;20210;-73
2023/07/08 08:42:26;;;;;;;94.67;2.53;;;26.70;23.70;;;;;;4971699;28;20183;-73
2023/07/08 08:44:52;;;;;;;93.87;2.40;;;26.90;23.80;;;;;;4971079;28;20174;-74
2023/07/08 08:47:34;;;;;;;93.93;2.60;;;27.20;22.50;;;;;;4972599;28;20476;-73
2023/07/08 08:50:20;;;;;;;94.60;2.70;;;27.30;21.90;;;;;;4965431;28;20204;-74
2023/07/08 08:52:46;;;;;;;94.83;2.90;;;27.20;22.90;;;;;;4972235;28;20476;-73
2023/07/08 08:55:13;;;;;;;95.60;3.10;;;26.90;22.50;;;;;;4973025;28;20413;-74
2023/07/08 08:57:48;;;;;;;93.80;2.67;;;26.60;23.30;;;;;;4976641;28;20178;-73
2023/07/08 09:00:21;;;;;;;93.97;2.50;;;26.50;23.30;;;;;;4976462;28;20476;-73
2023/07/08 09:02:47;;;;;;;93.63;2.60;;;26.50;22.80;;;;;;4976379;28;20433;-74
2023/07/08 09:05:14;;;;;;;94.50;2.60;;;27.00;23.90;;;;;;4976127;28;20414;-73
2023/07/08 09:08:06;;;;;;;93.37;2.23;;;27.40;24.60;;;;;;4976246;28;20181;-73
2023/07/08 09:10:56;;;;;;;93.80;2.40;;;27.80;22.70;;;;;;4968250;28;20549;-73
2023/07/08 09:13:30;;;;;;;93.47;2.40;;;28.10;22.30;;;;;;4976042;28;20433;-73
2023/07/08 09:16:05;;;;;;;96.03;3.00;;;28.10;22.30;;;;;;4968330;28;20726;-72
2023/07/08 09:18:38;;;;;;;94.23;2.30;;;28.20;23.10;;;;;;4976033;28;20453;-73
2023/07/08 09:21:20;;;;;;;94.27;2.60;;;28.30;22.90;;;;;;4976021;28;20430;-73
2023/07/08 09:23:49;;;;;;;93.67;2.30;;;28.30;22.80;;;;;;4975162;28;20445;-74
2023/07/08 09:26:21;;;;;;;94.30;2.30;;;28.40;22.80;;;;;;4975905;28;20410;-73
2023/07/08 09:28:47;;;;;;;93.90;2.40;;;28.40;22.40;;;;;;4976225;28;20496;-73
2023/07/08 09:31:21;;;;;;;93.77;2.50;;;28.40;21.90;;;;;;4975842;28;20417;-73
2023/07/08 09:33:47;;;;;;;94.00;2.30;;;28.40;21.90;;;;;;4976161;28;20538;-73
2023/07/08 09:36:22;;;;;;;93.80;2.47;;;28.40;21.80;;;;;;4975607;28;20418;-73
2023/07/08 09:38:49;;;;;;;95.17;3.00;;;28.70;21.90;;;;;;4975820;28;20212;-73
2023/07/08 09:41:34;;;;;;;93.77;2.30;;;28.80;21.50;;;;;;4975798;28;20414;-73
2023/07/08 09:44:05;;;;;;;94.47;2.43;;;28.70;22.60;;;;;;4975938;28;20484;-73
2023/07/08 09:46:37;;;;;;;93.77;2.07;;;28.80;21.30;;;;;;4975368;28;20421;-73
2023/07/08 09:49:22;;;;;;;94.10;2.53;;;28.90;21.60;;;;;;4975829;28;20976;-73
2023/07/08 09:51:50;;;;;;;97.10;2.77;;;29.00;21.70;;;;;;4975317;28;20429;-73
2023/07/08 09:54:17;;;;;;;98.00;2.80;;;28.80;21.10;;;;;;4975609;28;20766;-73
2023/07/08 09:56:48;;;;;;;94.27;2.53;;;28.90;22.10;;;;;;4990193;28;20472;-74
2023/07/08 09:59:14;;;;;;;94.77;2.83;;;29.20;22.10;;;;;;4975665;28;20469;-73
2023/07/08 10:01:41;;;;;;;94.67;2.70;;;29.20;20.70;;;;;;4974517;28;20436;-73
2023/07/08 10:04:07;;;;;;;94.10;2.40;;;29.00;21.60;;;;;;4974834;28;20429;-74
2023/07/08 10:06:35;;;;;;;93.87;2.13;;;29.30;21.40;;;;;;4973602;28;20925;-74
2023/07/08 10:09:09;;;;;;;94.00;2.30;;;29.40;21.70;;;;;;4971080;28;20356;-74
2023/07/08 10:11:47;;;;;;;94.50;2.33;;;29.10;21.40;;;;;;4974922;28;20417;-73
2023/07/08 10:14:58;;;;;;;93.50;1.87;;;28.70;21.70;;;;;;4974412;28;20436;-74
2023/07/08 10:17:24;;;;;;;93.93;2.33;;;29.00;21.60;;;;;;4973326;28;20523;-73
2023/07/08 10:19:49;;;;;;;93.47;2.00;;;29.10;21.60;;;;;;4973214;28;20941;-73
2023/07/08 10:22:38;;;;;;;94.27;2.50;;;29.20;20.50;;;;;;4974525;28;20181;-74
2023/07/08 10:25:27;;;;;;;93.50;2.03;;;29.70;19.90;;;;;;4972887;28;20178;-74
2023/07/08 10:28:18;;;;;;;93.27;2.00;;;29.80;20.30;;;;;;4974768;28;20414;-73
2023/07/08 10:31:02;;;;;;;93.77;2.40;;;30.10;19.30;;;;;;4974306;28;20429;-74
2023/07/08 10:33:49;;;;;;;93.50;2.30;;;29.90;19.50;;;;;;4974903;28;20460;-74
2023/07/08 10:36:36;;;;;;;94.30;2.40;;;29.90;19.50;;;;;;4974688;28;20410;-73
2023/07/08 10:39:28;;;;;;;93.40;2.30;;;30.40;19.40;;;;;;4973346;28;20476;-74
2023/07/08 10:42:16;;;;;;;92.90;1.90;;;31.00;18.60;;;;;;4974802;28;20815;-73
2023/07/08 10:44:44;;;;;;;94.60;2.20;;;31.20;17.40;;;;;;4974690;28;20413;-74
2023/07/08 10:47:25;;;;;;;93.30;2.20;;;31.10;17.60;;;;;;4974591;28;20468;-74
2023/07/08 10:50:10;;;;;;;93.07;2.20;;;31.30;18.00;;;;;;4974728;28;20434;-74
2023/07/08 10:53:14;;;;;;;92.70;1.90;;;31.60;16.60;;;;;;4974560;28;20425;-74
2023/07/08 10:56:12;;;;;;;92.77;1.90;;;31.80;16.50;;;;;;4976541;28;20484;-75
2023/07/08 10:58:52;;;;;;;93.57;2.30;;;31.90;16.40;;;;;;4976518;28;20484;-75
2023/07/08 11:01:33;;;;;;;93.20;2.40;;;32.10;15.30;;;;;;4976830;28;20405;-74
2023/07/08 11:04:34;;;;;;;93.17;2.20;;;32.00;16.10;;;;;;4978096;28;20398;-75
2023/07/08 11:07:04;;;;;;;92.57;2.00;;;31.70;15.80;;;;;;4978552;28;20429;-75
2023/07/08 11:09:59;;;;;;;92.70;2.00;;;32.20;16.00;;;;;;4978223;28;20432;-75
2023/07/08 11:12:40;;;;;;;92.80;2.10;;;32.60;16.50;;;;;;4978193;28;20532;-75
2023/07/08 11:15:25;;;;;;;92.80;2.07;;;32.60;16.60;;;;;;4974902;28;20412;-74
2023/07/08 11:18:02;;;;;;;93.03;2.10;;;32.60;15.40;;;;;;4973676;28;20390;-74
2023/07/08 11:20:44;;;;;;;93.03;2.00;;;32.70;16.20;;;;;;4974098;28;20469;-74
2023/07/08 11:23:33;;;;;;;95.67;2.77;;;32.90;16.20;;;;;;4974149;28;20464;-73
2023/07/08 11:26:25;;;;;;;92.40;2.03;;;33.10;15.50;;;;;;4973564;28;20441;-74
2023/07/08 11:28:54;;;;;;;92.27;1.90;;;33.20;15.40;;;;;;4973719;28;20436;-75
2023/07/08 11:31:20;;;;;;;94.67;2.50;;;33.80;13.90;;;;;;4973856;28;20410;-75
2023/07/08 11:33:47;;;;;;;92.50;1.93;;;32.80;14.50;;;;;;4973894;28;20422;-75
2023/07/08 11:36:14;;;;;;;91.80;1.70;;;33.50;15.50;;;;;;4973422;28;20446;-74
2023/07/08 11:38:54;;;;;;;92.17;1.90;;;34.40;12.50;;;;;;4973505;28;20468;-74
2023/07/08 11:41:23;;;;;;;92.17;1.90;;;34.30;13.80;;;;;;4973781;28;20406;-74
2023/07/08 11:43:58;;;;;;;92.20;1.70;;;35.60;11.60;;;;;;4973997;28;20417;-74
2023/07/08 11:46:30;;;;;;;91.60;1.83;;;36.00;10.90;;;;;;4973347;28;20405;-74
2023/07/08 11:49:14;;;;;;;93.80;2.33;;;37.40;10.30;;;;;;4973609;28;20433;-74
2023/07/08 11:51:44;;;;;;;90.27;1.60;;;36.80;9.50;;;;;;4973557;28;20984;-74
2023/07/08 11:54:29;;;;;;;90.00;1.60;;;37.90;9.90;;;;;;4973494;28;20489;-74
2023/07/08 11:56:59;;;;;;;89.30;1.60;;;38.70;9.10;;;;;;4973319;28;20821;-75
2023/07/08 11:59:36;;;;;;;88.63;1.63;;;38.40;8.10;;;;;;4973300;28;20491;-74
2023/07/08 12:02:12;;;;;;;87.97;1.60;;;39.40;7.40;;;;;;4973340;28;20398;-75
2023/07/08 12:04:59;;;;;;;88.53;1.70;;;40.00;7.30;;;;;;4973199;28;20750;-74
2023/07/08 12:07:57;;;;;;;90.80;1.60;;;39.50;8.20;;;;;;4973195;28;20785;-75
2023/07/08 12:10:48;;;;;;;87.00;1.70;;;38.80;8.30;;;;;;4972980;28;20516;-74
2023/07/08 12:13:17;;;;;;;86.77;1.70;;;39.00;8.10;;;;;;4969968;28;20532;-74
2023/07/08 12:15:43;;;;;;;86.30;1.60;;;39.10;8.00;;;;;;4972740;28;20496;-74
2023/07/08 12:18:08;;;;;;;86.97;1.97;;;39.00;7.60;;;;;;4972960;28;20860;-75
2023/07/08 12:20:37;;;;;;;87.77;2.00;;;39.10;7.00;;;;;;4972873;28;20212;-75
2023/07/08 12:23:13;;;;;;;86.50;1.70;;;38.70;6.70;;;;;;4972942;28;20609;-75
2023/07/08 12:25:39;;;;;;;86.13;1.70;;;36.80;9.60;;;;;;4972825;28;20454;-75
2023/07/08 12:28:04;;;;;;;85.10;1.43;;;37.60;8.60;;;;;;4972922;28;20856;-74
2023/07/08 12:30:32;;;;;;;85.93;1.63;;;37.80;8.20;;;;;;4972300;28;20194;-75
2023/07/08 12:32:59;;;;;;;85.30;1.80;;;38.40;8.30;;;;;;4972553;28;20174;-74
2023/07/08 12:35:29;;;;;;;85.10;1.70;;;37.10;8.80;;;;;;4972718;28;20940;-74
2023/07/08 12:37:59;;;;;;;85.37;1.73;;;36.40;9.80;;;;;;4972554;28;20406;-75
2023/07/08 12:40:27;;;;;;;87.40;1.70;;;37.20;9.10;;;;;;4972521;28;21019;-74
2023/07/08 12:42:53;;;;;;;84.90;1.60;;;37.50;8.50;;;;;;4972420;28;20413;-74
2023/07/08 12:45:21;;;;;;;86.07;1.60;;;37.20;9.20;;;;;;4972684;28;20406;-74
2023/07/08 12:47:48;;;;;;;84.77;1.60;;;37.60;10.20;;;;;;4972614;28;20420;-75
2023/07/08 12:50:13;;;;;;;84.53;1.53;;;38.30;7.50;;;;;;4972759;28;20456;-74
2023/07/08 12:52:39;;;;;;;84.90;1.50;;;39.30;7.40;;;;;;4972547;28;20413;-75